sensor_id;sensor_type;location;lat;lon;timestamp;P1;durP1;ratioP1;P2;durP2;ratioP2
74538;SDS011;66042;51.090;-115.340;2023-11-21T00:00:09;2.10;;;0.80;;
74538;SDS011;66042;51.090;-115.340;2023-11-21T00:02:38;3.50;;;0.60;;
74538;SDS011;66042;51.090;-115.340;2023-11-21T00:05:10;2.70;;;1.00;;
74538;SDS011;66042;51.090;-115.340;2023-11-21T00:07:40;3.80;;;1.00;;
74538;SDS011;66042;51.090;-115.340;2023-11-21T00:10:08;1.30;;;0.30;;
74538;SDS011;66042;51.090;-115.340;2023-11-21T00:12:36;3.30;;;1.60;;
74538;SDS011;66042;51.090;-115.340;2023-11-21T00:15:04;4.80;;;1.50;;
74538;SDS011;66042;51.090;-115.340;2023-11-21T00:17:35;6.00;;;2.00;;
74538;SDS011;66042;51.090;-115.340;2023-11-21T00:20:02;7.70;;;3.40;;
74538;SDS011;66042;51.090;-115.340;2023-11-21T00:22:36;5.90;;;1.90;;
74538;SDS011;66042;51.090;-115.340;2023-11-21T00:25:03;3.60;;;2.10;;
74538;SDS011;66042;51.090;-115.340;2023-11-21T00:27:30;5.30;;;1.40;;
74538;SDS011;66042;51.090;-115.340;2023-11-21T00:29:57;6.80;;;3.60;;
74538;SDS011;66042;51.090;-115.340;2023-11-21T00:32:24;6.10;;;2.70;;
74538;SDS011;66042;51.090;-115.340;2023-11-21T00:34:51;6.00;;;3.60;;
74538;SDS011;66042;51.090;-115.340;2023-11-21T00:37:18;6.70;;;3.60;;
74538;SDS011;66042;51.090;-115.340;2023-11-21T00:39:45;9.00;;;5.80;;
74538;SDS011;66042;51.090;-115.340;2023-11-21T00:42:12;14.70;;;6.60;;
74538;SDS011;66042;51.090;-115.340;2023-11-21T00:44:39;12.50;;;4.20;;
74538;SDS011;66042;51.090;-115.340;2023-11-21T00:47:06;7.30;;;2.20;;
74538;SDS011;66042;51.090;-115.340;2023-11-21T00:49:34;2.60;;;0.70;;
74538;SDS011;66042;51.090;-115.340;2023-11-21T00:52:01;2.70;;;0.80;;
74538;SDS011;66042;51.090;-115.340;2023-11-21T00:54:28;3.80;;;0.90;;
74538;SDS011;66042;51.090;-115.340;2023-11-21T00:56:56;15.60;;;7.80;;
74538;SDS011;66042;51.090;-115.340;2023-11-21T00:59:23;8.00;;;3.00;;
74538;SDS011;66042;51.090;-115.340;2023-11-21T01:01:51;8.70;;;3.80;;
74538;SDS011;66042;51.090;-115.340;2023-11-21T01:04:18;5.80;;;2.00;;
74538;SDS011;66042;51.090;-115.340;2023-11-21T01:06:45;2.20;;;1.10;;
74538;SDS011;66042;51.090;-115.340;2023-11-21T01:09:12;12.20;;;4.80;;
74538;SDS011;66042;51.090;-115.340;2023-11-21T01:11:39;5.90;;;2.60;;
74538;SDS011;66042;51.090;-115.340;2023-11-21T01:14:06;4.40;;;1.70;;
74538;SDS011;66042;51.090;-115.340;2023-11-21T01:16:35;4.30;;;2.10;;
74538;SDS011;66042;51.090;-115.340;2023-11-21T01:19:03;6.20;;;3.20;;
74538;SDS011;66042;51.090;-115.340;2023-11-21T01:21:30;5.00;;;2.20;;
74538;SDS011;66042;51.090;-115.340;2023-11-21T01:23:58;2.60;;;0.90;;
74538;SDS011;66042;51.090;-115.340;2023-11-21T01:26:24;3.20;;;1.40;;
74538;SDS011;66042;51.090;-115.340;2023-11-21T01:28:51;6.60;;;4.20;;
74538;SDS011;66042;51.090;-115.340;2023-11-21T01:31:18;7.80;;;3.90;;
74538;SDS011;66042;51.090;-115.340;2023-11-21T01:33:46;7.60;;;3.40;;
74538;SDS011;66042;51.090;-115.340;2023-11-21T01:36:14;3.90;;;1.20;;
74538;SDS011;66042;51.090;-115.340;2023-11-21T01:38:41;2.30;;;0.50;;
74538;SDS011;66042;51.090;-115.340;2023-11-21T01:41:08;1.60;;;0.30;;
74538;SDS011;66042;51.090;-115.340;2023-11-21T01:43:38;3.80;;;1.50;;
74538;SDS011;66042;51.090;-115.340;2023-11-21T01:46:06;3.10;;;1.40;;
74538;SDS011;66042;51.090;-115.340;2023-11-21T01:48:34;6.80;;;3.30;;
74538;SDS011;66042;51.090;-115.340;2023-11-21T01:51:02;12.40;;;5.50;;
74538;SDS011;66042;51.090;-115.340;2023-11-21T01:53:29;9.00;;;3.20;;
74538;SDS011;66042;51.090;-115.340;2023-11-21T01:55:56;17.00;;;7.10;;
74538;SDS011;66042;51.090;-115.340;2023-11-21T01:58:23;39.10;;;15.60;;
74538;SDS011;66042;51.090;-115.340;2023-11-21T02:00:51;26.00;;;10.60;;
74538;SDS011;66042;51.090;-115.340;2023-11-21T02:03:21;26.80;;;11.00;;
74538;SDS011;66042;51.090;-115.340;2023-11-21T02:05:48;12.50;;;4.80;;
74538;SDS011;66042;51.090;-115.340;2023-11-21T02:08:15;5.50;;;2.20;;
74538;SDS011;66042;51.090;-115.340;2023-11-21T02:10:42;3.90;;;1.50;;
74538;SDS011;66042;51.090;-115.340;2023-11-21T02:13:09;3.40;;;1.20;;
74538;SDS011;66042;51.090;-115.340;2023-11-21T02:15:37;3.10;;;1.00;;
74538;SDS011;66042;51.090;-115.340;2023-11-21T02:18:04;1.80;;;0.40;;
74538;SDS011;66042;51.090;-115.340;2023-11-21T02:20:32;3.90;;;0.60;;
74538;SDS011;66042;51.090;-115.340;2023-11-21T02:23:01;3.60;;;0.50;;
74538;SDS011;66042;51.090;-115.340;2023-11-21T02:25:29;2.40;;;0.70;;
74538;SDS011;66042;51.090;-115.340;2023-11-21T02:28:03;1.60;;;0.40;;
74538;SDS011;66042;51.090;-115.340;2023-11-21T02:30:32;2.40;;;0.50;;
74538;SDS011;66042;51.090;-115.340;2023-11-21T02:33:00;2.50;;;0.50;;
74538;SDS011;66042;51.090;-115.340;2023-11-21T02:35:28;1.70;;;0.40;;
74538;SDS011;66042;51.090;-115.340;2023-11-21T02:37:57;3.00;;;0.60;;
74538;SDS011;66042;51.090;-115.340;2023-11-21T02:40:24;3.00;;;0.60;;
74538;SDS011;66042;51.090;-115.340;2023-11-21T02:42:52;1.50;;;0.50;;
74538;SDS011;66042;51.090;-115.340;2023-11-21T02:45:20;3.10;;;0.80;;
74538;SDS011;66042;51.090;-115.340;2023-11-21T02:47:48;1.60;;;0.40;;
74538;SDS011;66042;51.090;-115.340;2023-11-21T02:50:15;2.10;;;0.60;;
74538;SDS011;66042;51.090;-115.340;2023-11-21T02:52:44;1.50;;;0.70;;
74538;SDS011;66042;51.090;-115.340;2023-11-21T02:55:12;3.80;;;1.00;;
74538;SDS011;66042;51.090;-115.340;2023-11-21T02:57:39;6.00;;;2.50;;
74538;SDS011;66042;51.090;-115.340;2023-11-21T03:00:06;5.00;;;1.90;;
74538;SDS011;66042;51.090;-115.340;2023-11-21T03:02:35;2.80;;;0.70;;
74538;SDS011;66042;51.090;-115.340;2023-11-21T03:05:06;3.70;;;0.60;;
74538;SDS011;66042;51.090;-115.340;2023-11-21T03:07:39;1.70;;;0.30;;
74538;SDS011;66042;51.090;-115.340;2023-11-21T03:10:08;1.30;;;0.60;;
74538;SDS011;66042;51.090;-115.340;2023-11-21T03:12:38;1.80;;;0.50;;
74538;SDS011;66042;51.090;-115.340;2023-11-21T03:15:07;1.80;;;0.50;;
74538;SDS011;66042;51.090;-115.340;2023-11-21T03:17:37;1.20;;;0.40;;
74538;SDS011;66042;51.090;-115.340;2023-11-21T03:20:04;1.60;;;0.50;;
74538;SDS011;66042;51.090;-115.340;2023-11-21T03:22:32;1.80;;;0.60;;
74538;SDS011;66042;51.090;-115.340;2023-11-21T03:25:02;2.10;;;0.50;;
74538;SDS011;66042;51.090;-115.340;2023-11-21T03:27:30;1.10;;;0.40;;
74538;SDS011;66042;51.090;-115.340;2023-11-21T03:29:57;2.20;;;0.70;;
74538;SDS011;66042;51.090;-115.340;2023-11-21T03:32:24;1.30;;;0.50;;
74538;SDS011;66042;51.090;-115.340;2023-11-21T03:34:58;3.00;;;0.50;;
74538;SDS011;66042;51.090;-115.340;2023-11-21T03:37:26;1.00;;;0.40;;
74538;SDS011;66042;51.090;-115.340;2023-11-21T03:39:56;2.70;;;0.50;;
74538;SDS011;66042;51.090;-115.340;2023-11-21T03:42:29;2.00;;;0.50;;
74538;SDS011;66042;51.090;-115.340;2023-11-21T03:45:05;0.90;;;0.40;;
74538;SDS011;66042;51.090;-115.340;2023-11-21T03:47:49;1.00;;;0.40;;
74538;SDS011;66042;51.090;-115.340;2023-11-21T03:50:20;1.20;;;0.70;;
74538;SDS011;66042;51.090;-115.340;2023-11-21T03:53:13;3.00;;;0.40;;
74538;SDS011;66042;51.090;-115.340;2023-11-21T03:55:46;1.90;;;0.60;;
74538;SDS011;66042;51.090;-115.340;2023-11-21T03:58:38;1.40;;;0.50;;
74538;SDS011;66042;51.090;-115.340;2023-11-21T04:01:23;2.30;;;0.50;;
74538;SDS011;66042;51.090;-115.340;2023-11-21T04:04:02;1.10;;;0.40;;
74538;SDS011;66042;51.090;-115.340;2023-11-21T04:06:33;1.40;;;0.50;;
74538;SDS011;66042;51.090;-115.340;2023-11-21T04:09:18;2.30;;;0.40;;
74538;SDS011;66042;51.090;-115.340;2023-11-21T04:12:41;1.40;;;0.30;;
74538;SDS011;66042;51.090;-115.340;2023-11-21T04:15:35;0.90;;;0.50;;
74538;SDS011;66042;51.090;-115.340;2023-11-21T04:18:55;1.10;;;0.50;;
74538;SDS011;66042;51.090;-115.340;2023-11-21T04:21:29;0.80;;;0.40;;
74538;SDS011;66042;51.090;-115.340;2023-11-21T04:24:06;0.80;;;0.30;;
74538;SDS011;66042;51.090;-115.340;2023-11-21T04:30:44;1.60;;;0.50;;
74538;SDS011;66042;51.090;-115.340;2023-11-21T04:36:33;0.80;;;0.40;;
74538;SDS011;66042;51.090;-115.340;2023-11-21T04:39:26;1.70;;;0.40;;
74538;SDS011;66042;51.090;-115.340;2023-11-21T04:42:06;1.40;;;0.50;;
74538;SDS011;66042;51.090;-115.340;2023-11-21T04:44:39;1.20;;;0.40;;
74538;SDS011;66042;51.090;-115.340;2023-11-21T04:47:07;0.80;;;0.50;;
74538;SDS011;66042;51.090;-115.340;2023-11-21T04:49:42;1.00;;;0.40;;
74538;SDS011;66042;51.090;-115.340;2023-11-21T04:52:09;1.20;;;0.40;;
74538;SDS011;66042;51.090;-115.340;2023-11-21T04:55:05;0.80;;;0.40;;
74538;SDS011;66042;51.090;-115.340;2023-11-21T04:57:40;0.90;;;0.40;;
74538;SDS011;66042;51.090;-115.340;2023-11-21T05:00:13;0.90;;;0.30;;
74538;SDS011;66042;51.090;-115.340;2023-11-21T05:03:00;0.90;;;0.60;;
74538;SDS011;66042;51.090;-115.340;2023-11-21T05:05:30;1.20;;;0.40;;
74538;SDS011;66042;51.090;-115.340;2023-11-21T05:08:04;1.20;;;0.40;;
74538;SDS011;66042;51.090;-115.340;2023-11-21T05:10:37;1.20;;;0.60;;
74538;SDS011;66042;51.090;-115.340;2023-11-21T05:13:16;0.80;;;0.40;;
74538;SDS011;66042;51.090;-115.340;2023-11-21T05:16:09;1.70;;;0.50;;
74538;SDS011;66042;51.090;-115.340;2023-11-21T05:19:09;1.90;;;0.60;;
74538;SDS011;66042;51.090;-115.340;2023-11-21T05:22:04;0.90;;;0.40;;
74538;SDS011;66042;51.090;-115.340;2023-11-21T05:24:32;0.90;;;0.50;;
74538;SDS011;66042;51.090;-115.340;2023-11-21T05:27:11;1.20;;;0.60;;
74538;SDS011;66042;51.090;-115.340;2023-11-21T05:29:47;1.10;;;0.40;;
74538;SDS011;66042;51.090;-115.340;2023-11-21T05:32:45;1.20;;;0.60;;
74538;SDS011;66042;51.090;-115.340;2023-11-21T05:35:33;1.10;;;0.50;;
74538;SDS011;66042;51.090;-115.340;2023-11-21T05:38:19;2.60;;;0.50;;
74538;SDS011;66042;51.090;-115.340;2023-11-21T05:41:15;1.50;;;0.70;;
74538;SDS011;66042;51.090;-115.340;2023-11-21T05:43:49;1.20;;;0.40;;
74538;SDS011;66042;51.090;-115.340;2023-11-21T05:46:26;0.90;;;0.40;;
74538;SDS011;66042;51.090;-115.340;2023-11-21T05:48:56;1.10;;;0.60;;
74538;SDS011;66042;51.090;-115.340;2023-11-21T05:51:24;1.70;;;0.40;;
74538;SDS011;66042;51.090;-115.340;2023-11-21T05:53:51;1.30;;;0.50;;
74538;SDS011;66042;51.090;-115.340;2023-11-21T05:56:27;0.90;;;0.50;;
74538;SDS011;66042;51.090;-115.340;2023-11-21T05:59:12;1.40;;;0.40;;
74538;SDS011;66042;51.090;-115.340;2023-11-21T06:01:41;1.60;;;0.40;;
74538;SDS011;66042;51.090;-115.340;2023-11-21T06:04:15;1.30;;;0.50;;
74538;SDS011;66042;51.090;-115.340;2023-11-21T06:10:11;3.00;;;0.40;;
74538;SDS011;66042;51.090;-115.340;2023-11-21T06:13:05;1.30;;;0.50;;
74538;SDS011;66042;51.090;-115.340;2023-11-21T06:18:30;0.90;;;0.40;;
74538;SDS011;66042;51.090;-115.340;2023-11-21T06:21:38;1.30;;;0.40;;
74538;SDS011;66042;51.090;-115.340;2023-11-21T06:24:17;1.30;;;0.70;;
74538;SDS011;66042;51.090;-115.340;2023-11-21T06:30:17;1.20;;;0.50;;
74538;SDS011;66042;51.090;-115.340;2023-11-21T06:33:11;0.80;;;0.40;;
74538;SDS011;66042;51.090;-115.340;2023-11-21T06:38:46;1.40;;;0.40;;
74538;SDS011;66042;51.090;-115.340;2023-11-21T06:41:55;1.10;;;0.30;;
74538;SDS011;66042;51.090;-115.340;2023-11-21T06:44:29;0.70;;;0.30;;
74538;SDS011;66042;51.090;-115.340;2023-11-21T06:47:14;1.00;;;0.40;;
74538;SDS011;66042;51.090;-115.340;2023-11-21T06:49:52;1.10;;;0.50;;
74538;SDS011;66042;51.090;-115.340;2023-11-21T06:52:20;1.20;;;0.70;;
74538;SDS011;66042;51.090;-115.340;2023-11-21T06:54:47;1.30;;;0.50;;
74538;SDS011;66042;51.090;-115.340;2023-11-21T06:57:25;1.20;;;0.60;;
74538;SDS011;66042;51.090;-115.340;2023-11-21T07:00:08;1.40;;;0.50;;
74538;SDS011;66042;51.090;-115.340;2023-11-21T07:02:35;1.30;;;0.60;;
74538;SDS011;66042;51.090;-115.340;2023-11-21T07:05:03;2.70;;;0.50;;
74538;SDS011;66042;51.090;-115.340;2023-11-21T07:07:44;1.10;;;0.50;;
74538;SDS011;66042;51.090;-115.340;2023-11-21T07:10:32;0.90;;;0.30;;
74538;SDS011;66042;51.090;-115.340;2023-11-21T07:13:11;1.20;;;0.60;;
74538;SDS011;66042;51.090;-115.340;2023-11-21T07:15:44;1.40;;;0.60;;
74538;SDS011;66042;51.090;-115.340;2023-11-21T07:18:20;1.10;;;0.50;;
74538;SDS011;66042;51.090;-115.340;2023-11-21T07:20:53;1.00;;;0.40;;
74538;SDS011;66042;51.090;-115.340;2023-11-21T07:23:23;1.50;;;0.70;;
74538;SDS011;66042;51.090;-115.340;2023-11-21T07:25:54;1.50;;;0.70;;
74538;SDS011;66042;51.090;-115.340;2023-11-21T07:28:37;0.90;;;0.50;;
74538;SDS011;66042;51.090;-115.340;2023-11-21T07:31:22;2.40;;;0.40;;
74538;SDS011;66042;51.090;-115.340;2023-11-21T07:34:21;1.10;;;0.50;;
74538;SDS011;66042;51.090;-115.340;2023-11-21T07:37:07;1.00;;;0.50;;
74538;SDS011;66042;51.090;-115.340;2023-11-21T07:40:17;0.90;;;0.50;;
74538;SDS011;66042;51.090;-115.340;2023-11-21T07:42:46;0.70;;;0.30;;
74538;SDS011;66042;51.090;-115.340;2023-11-21T07:45:17;0.90;;;0.50;;
74538;SDS011;66042;51.090;-115.340;2023-11-21T07:47:51;1.10;;;0.30;;
74538;SDS011;66042;51.090;-115.340;2023-11-21T07:50:18;1.00;;;0.50;;
74538;SDS011;66042;51.090;-115.340;2023-11-21T07:52:49;1.10;;;0.60;;
74538;SDS011;66042;51.090;-115.340;2023-11-21T07:55:26;0.90;;;0.40;;
74538;SDS011;66042;51.090;-115.340;2023-11-21T07:58:06;1.20;;;0.40;;
74538;SDS011;66042;51.090;-115.340;2023-11-21T08:00:38;1.30;;;0.60;;
74538;SDS011;66042;51.090;-115.340;2023-11-21T08:03:20;0.90;;;0.30;;
74538;SDS011;66042;51.090;-115.340;2023-11-21T08:05:47;1.60;;;0.60;;
74538;SDS011;66042;51.090;-115.340;2023-11-21T08:08:14;1.00;;;0.60;;
74538;SDS011;66042;51.090;-115.340;2023-11-21T08:10:47;0.70;;;0.40;;
74538;SDS011;66042;51.090;-115.340;2023-11-21T08:13:26;0.80;;;0.30;;
74538;SDS011;66042;51.090;-115.340;2023-11-21T08:15:57;1.20;;;0.50;;
74538;SDS011;66042;51.090;-115.340;2023-11-21T08:18:29;1.00;;;0.40;;
74538;SDS011;66042;51.090;-115.340;2023-11-21T08:20:56;0.90;;;0.50;;
74538;SDS011;66042;51.090;-115.340;2023-11-21T08:23:23;1.20;;;0.40;;
74538;SDS011;66042;51.090;-115.340;2023-11-21T08:25:53;1.40;;;0.50;;
74538;SDS011;66042;51.090;-115.340;2023-11-21T08:28:21;1.10;;;0.40;;
74538;SDS011;66042;51.090;-115.340;2023-11-21T08:30:52;1.20;;;0.40;;
74538;SDS011;66042;51.090;-115.340;2023-11-21T08:33:20;1.80;;;0.40;;
74538;SDS011;66042;51.090;-115.340;2023-11-21T08:35:47;1.20;;;0.50;;
74538;SDS011;66042;51.090;-115.340;2023-11-21T08:38:15;2.20;;;0.60;;
74538;SDS011;66042;51.090;-115.340;2023-11-21T08:40:42;1.50;;;0.40;;
74538;SDS011;66042;51.090;-115.340;2023-11-21T08:43:09;1.50;;;0.60;;
74538;SDS011;66042;51.090;-115.340;2023-11-21T08:45:38;1.20;;;0.50;;
74538;SDS011;66042;51.090;-115.340;2023-11-21T08:48:05;0.80;;;0.40;;
74538;SDS011;66042;51.090;-115.340;2023-11-21T08:50:32;0.70;;;0.40;;
74538;SDS011;66042;51.090;-115.340;2023-11-21T08:53:00;0.70;;;0.20;;
74538;SDS011;66042;51.090;-115.340;2023-11-21T08:55:27;1.40;;;0.50;;
74538;SDS011;66042;51.090;-115.340;2023-11-21T08:57:54;2.00;;;0.70;;
74538;SDS011;66042;51.090;-115.340;2023-11-21T09:00:21;0.80;;;0.40;;
74538;SDS011;66042;51.090;-115.340;2023-11-21T09:02:49;1.10;;;0.40;;
74538;SDS011;66042;51.090;-115.340;2023-11-21T09:05:16;1.00;;;0.40;;
74538;SDS011;66042;51.090;-115.340;2023-11-21T09:07:44;1.30;;;0.60;;
74538;SDS011;66042;51.090;-115.340;2023-11-21T09:10:13;1.10;;;0.60;;
74538;SDS011;66042;51.090;-115.340;2023-11-21T09:12:40;1.20;;;0.40;;
74538;SDS011;66042;51.090;-115.340;2023-11-21T09:15:09;1.20;;;0.70;;
74538;SDS011;66042;51.090;-115.340;2023-11-21T09:17:36;1.20;;;0.70;;
74538;SDS011;66042;51.090;-115.340;2023-11-21T09:20:05;2.00;;;0.80;;
74538;SDS011;66042;51.090;-115.340;2023-11-21T09:22:36;1.40;;;0.60;;
74538;SDS011;66042;51.090;-115.340;2023-11-21T09:25:03;3.20;;;0.60;;
74538;SDS011;66042;51.090;-115.340;2023-11-21T09:27:54;1.10;;;0.40;;
74538;SDS011;66042;51.090;-115.340;2023-11-21T09:30:25;2.30;;;0.70;;
74538;SDS011;66042;51.090;-115.340;2023-11-21T09:32:59;1.90;;;0.90;;
74538;SDS011;66042;51.090;-115.340;2023-11-21T09:35:31;1.70;;;0.70;;
74538;SDS011;66042;51.090;-115.340;2023-11-21T09:38:14;2.40;;;0.60;;
74538;SDS011;66042;51.090;-115.340;2023-11-21T09:40:41;2.80;;;0.60;;
74538;SDS011;66042;51.090;-115.340;2023-11-21T09:43:34;1.70;;;0.40;;
74538;SDS011;66042;51.090;-115.340;2023-11-21T09:46:02;1.40;;;0.60;;
74538;SDS011;66042;51.090;-115.340;2023-11-21T09:48:40;1.40;;;0.70;;
74538;SDS011;66042;51.090;-115.340;2023-11-21T09:51:08;1.70;;;0.80;;
74538;SDS011;66042;51.090;-115.340;2023-11-21T09:53:50;1.60;;;0.60;;
74538;SDS011;66042;51.090;-115.340;2023-11-21T09:56:33;1.80;;;0.60;;
74538;SDS011;66042;51.090;-115.340;2023-11-21T09:59:06;2.30;;;0.60;;
74538;SDS011;66042;51.090;-115.340;2023-11-21T10:02:07;1.50;;;0.70;;
74538;SDS011;66042;51.090;-115.340;2023-11-21T10:04:59;1.90;;;0.60;;
74538;SDS011;66042;51.090;-115.340;2023-11-21T10:07:30;1.30;;;0.50;;
74538;SDS011;66042;51.090;-115.340;2023-11-21T10:10:03;1.50;;;0.60;;
74538;SDS011;66042;51.090;-115.340;2023-11-21T10:12:32;1.20;;;0.60;;
74538;SDS011;66042;51.090;-115.340;2023-11-21T10:15:03;1.90;;;0.80;;
74538;SDS011;66042;51.090;-115.340;2023-11-21T10:17:36;1.60;;;0.70;;
74538;SDS011;66042;51.090;-115.340;2023-11-21T10:20:15;0.90;;;0.50;;
74538;SDS011;66042;51.090;-115.340;2023-11-21T10:22:43;1.70;;;0.80;;
74538;SDS011;66042;51.090;-115.340;2023-11-21T10:25:10;1.50;;;0.70;;
74538;SDS011;66042;51.090;-115.340;2023-11-21T10:27:41;1.70;;;0.70;;
74538;SDS011;66042;51.090;-115.340;2023-11-21T10:30:10;0.90;;;0.40;;
74538;SDS011;66042;51.090;-115.340;2023-11-21T10:32:38;1.30;;;0.70;;
74538;SDS011;66042;51.090;-115.340;2023-11-21T10:35:07;1.00;;;0.50;;
74538;SDS011;66042;51.090;-115.340;2023-11-21T10:37:37;1.40;;;0.60;;
74538;SDS011;66042;51.090;-115.340;2023-11-21T10:40:10;1.00;;;0.50;;
74538;SDS011;66042;51.090;-115.340;2023-11-21T10:42:41;0.80;;;0.50;;
74538;SDS011;66042;51.090;-115.340;2023-11-21T10:45:09;1.30;;;0.50;;
74538;SDS011;66042;51.090;-115.340;2023-11-21T10:47:44;1.40;;;0.60;;
74538;SDS011;66042;51.090;-115.340;2023-11-21T10:50:11;1.40;;;0.70;;
74538;SDS011;66042;51.090;-115.340;2023-11-21T10:52:40;1.40;;;0.60;;
74538;SDS011;66042;51.090;-115.340;2023-11-21T10:55:21;1.20;;;0.60;;
74538;SDS011;66042;51.090;-115.340;2023-11-21T10:57:53;1.10;;;0.50;;
74538;SDS011;66042;51.090;-115.340;2023-11-21T11:00:24;1.40;;;0.50;;
74538;SDS011;66042;51.090;-115.340;2023-11-21T11:02:53;2.10;;;0.70;;
74538;SDS011;66042;51.090;-115.340;2023-11-21T11:05:23;1.30;;;0.80;;
74538;SDS011;66042;51.090;-115.340;2023-11-21T11:08:09;1.70;;;0.60;;
74538;SDS011;66042;51.090;-115.340;2023-11-21T11:10:39;1.60;;;0.80;;
74538;SDS011;66042;51.090;-115.340;2023-11-21T11:13:06;1.40;;;0.70;;
74538;SDS011;66042;51.090;-115.340;2023-11-21T11:15:33;1.50;;;0.90;;
74538;SDS011;66042;51.090;-115.340;2023-11-21T11:18:01;2.00;;;0.60;;
74538;SDS011;66042;51.090;-115.340;2023-11-21T11:20:34;1.30;;;0.80;;
74538;SDS011;66042;51.090;-115.340;2023-11-21T11:26:42;1.10;;;0.60;;
74538;SDS011;66042;51.090;-115.340;2023-11-21T11:29:31;2.20;;;0.90;;
74538;SDS011;66042;51.090;-115.340;2023-11-21T11:35:08;1.20;;;0.50;;
74538;SDS011;66042;51.090;-115.340;2023-11-21T11:37:43;1.80;;;0.60;;
74538;SDS011;66042;51.090;-115.340;2023-11-21T11:40:13;1.70;;;0.50;;
74538;SDS011;66042;51.090;-115.340;2023-11-21T11:43:00;1.20;;;0.70;;
74538;SDS011;66042;51.090;-115.340;2023-11-21T11:45:35;1.20;;;0.50;;
74538;SDS011;66042;51.090;-115.340;2023-11-21T11:48:05;1.50;;;0.40;;
74538;SDS011;66042;51.090;-115.340;2023-11-21T11:50:33;1.60;;;0.70;;
74538;SDS011;66042;51.090;-115.340;2023-11-21T11:53:15;1.00;;;0.50;;
74538;SDS011;66042;51.090;-115.340;2023-11-21T11:55:42;1.40;;;0.50;;
74538;SDS011;66042;51.090;-115.340;2023-11-21T11:58:10;1.20;;;0.60;;
74538;SDS011;66042;51.090;-115.340;2023-11-21T12:00:38;1.20;;;0.60;;
74538;SDS011;66042;51.090;-115.340;2023-11-21T12:03:07;1.40;;;0.50;;
74538;SDS011;66042;51.090;-115.340;2023-11-21T12:05:36;2.00;;;0.70;;
74538;SDS011;66042;51.090;-115.340;2023-11-21T12:08:08;2.90;;;0.80;;
74538;SDS011;66042;51.090;-115.340;2023-11-21T12:10:37;1.10;;;0.70;;
74538;SDS011;66042;51.090;-115.340;2023-11-21T12:13:10;1.40;;;0.60;;
74538;SDS011;66042;51.090;-115.340;2023-11-21T12:15:39;1.30;;;0.50;;
74538;SDS011;66042;51.090;-115.340;2023-11-21T12:18:07;0.80;;;0.40;;
74538;SDS011;66042;51.090;-115.340;2023-11-21T12:20:34;1.20;;;0.60;;
74538;SDS011;66042;51.090;-115.340;2023-11-21T12:23:08;1.00;;;0.70;;
74538;SDS011;66042;51.090;-115.340;2023-11-21T12:25:37;1.30;;;0.60;;
74538;SDS011;66042;51.090;-115.340;2023-11-21T12:28:05;1.30;;;0.50;;
74538;SDS011;66042;51.090;-115.340;2023-11-21T12:30:34;1.80;;;0.60;;
74538;SDS011;66042;51.090;-115.340;2023-11-21T12:33:04;2.10;;;0.60;;
74538;SDS011;66042;51.090;-115.340;2023-11-21T12:35:34;1.30;;;0.70;;
74538;SDS011;66042;51.090;-115.340;2023-11-21T12:38:03;1.60;;;0.60;;
74538;SDS011;66042;51.090;-115.340;2023-11-21T12:40:31;1.00;;;0.50;;
74538;SDS011;66042;51.090;-115.340;2023-11-21T12:42:59;1.90;;;0.60;;
74538;SDS011;66042;51.090;-115.340;2023-11-21T12:45:28;1.10;;;0.60;;
74538;SDS011;66042;51.090;-115.340;2023-11-21T12:48:00;2.30;;;0.60;;
74538;SDS011;66042;51.090;-115.340;2023-11-21T12:50:34;1.50;;;0.90;;
74538;SDS011;66042;51.090;-115.340;2023-11-21T12:53:03;1.50;;;0.50;;
74538;SDS011;66042;51.090;-115.340;2023-11-21T12:55:32;1.60;;;0.80;;
74538;SDS011;66042;51.090;-115.340;2023-11-21T12:58:04;1.20;;;0.50;;
74538;SDS011;66042;51.090;-115.340;2023-11-21T13:01:01;1.00;;;0.60;;
74538;SDS011;66042;51.090;-115.340;2023-11-21T13:03:31;1.30;;;0.50;;
74538;SDS011;66042;51.090;-115.340;2023-11-21T13:05:59;1.10;;;0.60;;
74538;SDS011;66042;51.090;-115.340;2023-11-21T13:08:27;1.70;;;0.70;;
74538;SDS011;66042;51.090;-115.340;2023-11-21T13:10:57;1.30;;;0.70;;
74538;SDS011;66042;51.090;-115.340;2023-11-21T13:13:25;2.50;;;0.70;;
74538;SDS011;66042;51.090;-115.340;2023-11-21T13:18:24;1.70;;;0.50;;
74538;SDS011;66042;51.090;-115.340;2023-11-21T13:20:58;1.30;;;0.70;;
74538;SDS011;66042;51.090;-115.340;2023-11-21T13:23:28;2.80;;;1.00;;
74538;SDS011;66042;51.090;-115.340;2023-11-21T13:26:02;1.10;;;0.50;;
74538;SDS011;66042;51.090;-115.340;2023-11-21T13:28:34;1.30;;;0.60;;
74538;SDS011;66042;51.090;-115.340;2023-11-21T13:31:04;1.40;;;0.80;;
74538;SDS011;66042;51.090;-115.340;2023-11-21T13:33:51;1.30;;;0.50;;
74538;SDS011;66042;51.090;-115.340;2023-11-21T13:36:25;2.00;;;0.70;;
74538;SDS011;66042;51.090;-115.340;2023-11-21T13:38:56;1.20;;;0.80;;
74538;SDS011;66042;51.090;-115.340;2023-11-21T13:41:25;2.40;;;0.70;;
74538;SDS011;66042;51.090;-115.340;2023-11-21T13:43:57;1.40;;;0.50;;
74538;SDS011;66042;51.090;-115.340;2023-11-21T13:46:52;2.70;;;0.90;;
74538;SDS011;66042;51.090;-115.340;2023-11-21T13:49:19;1.60;;;0.60;;
74538;SDS011;66042;51.090;-115.340;2023-11-21T13:51:47;2.30;;;0.60;;
74538;SDS011;66042;51.090;-115.340;2023-11-21T13:54:17;1.40;;;0.50;;
74538;SDS011;66042;51.090;-115.340;2023-11-21T13:56:46;2.10;;;0.60;;
74538;SDS011;66042;51.090;-115.340;2023-11-21T13:59:15;1.00;;;0.50;;
74538;SDS011;66042;51.090;-115.340;2023-11-21T14:01:49;1.90;;;0.60;;
74538;SDS011;66042;51.090;-115.340;2023-11-21T14:04:21;2.10;;;0.60;;
74538;SDS011;66042;51.090;-115.340;2023-11-21T14:07:15;1.30;;;0.50;;
74538;SDS011;66042;51.090;-115.340;2023-11-21T14:10:01;1.10;;;0.40;;
74538;SDS011;66042;51.090;-115.340;2023-11-21T14:12:29;1.20;;;0.60;;
74538;SDS011;66042;51.090;-115.340;2023-11-21T14:15:00;1.20;;;0.60;;
74538;SDS011;66042;51.090;-115.340;2023-11-21T14:17:31;1.10;;;0.50;;
74538;SDS011;66042;51.090;-115.340;2023-11-21T14:19:58;1.30;;;0.50;;
74538;SDS011;66042;51.090;-115.340;2023-11-21T14:22:25;1.00;;;0.60;;
74538;SDS011;66042;51.090;-115.340;2023-11-21T14:24:52;1.00;;;0.50;;
74538;SDS011;66042;51.090;-115.340;2023-11-21T14:27:21;1.20;;;0.50;;
74538;SDS011;66042;51.090;-115.340;2023-11-21T14:29:48;1.20;;;0.50;;
74538;SDS011;66042;51.090;-115.340;2023-11-21T14:32:15;1.90;;;0.70;;
74538;SDS011;66042;51.090;-115.340;2023-11-21T14:34:43;1.90;;;0.60;;
74538;SDS011;66042;51.090;-115.340;2023-11-21T14:37:13;2.00;;;0.60;;
74538;SDS011;66042;51.090;-115.340;2023-11-21T14:39:40;1.50;;;0.60;;
74538;SDS011;66042;51.090;-115.340;2023-11-21T14:42:11;1.80;;;0.60;;
74538;SDS011;66042;51.090;-115.340;2023-11-21T14:44:41;0.90;;;0.50;;
74538;SDS011;66042;51.090;-115.340;2023-11-21T14:47:08;1.00;;;0.50;;
74538;SDS011;66042;51.090;-115.340;2023-11-21T14:49:42;1.10;;;0.70;;
74538;SDS011;66042;51.090;-115.340;2023-11-21T14:52:19;3.00;;;0.70;;
74538;SDS011;66042;51.090;-115.340;2023-11-21T14:55:04;1.40;;;0.70;;
74538;SDS011;66042;51.090;-115.340;2023-11-21T14:57:50;1.00;;;0.50;;
74538;SDS011;66042;51.090;-115.340;2023-11-21T15:00:20;1.70;;;0.40;;
74538;SDS011;66042;51.090;-115.340;2023-11-21T15:03:01;2.50;;;0.60;;
74538;SDS011;66042;51.090;-115.340;2023-11-21T15:05:29;1.30;;;0.50;;
74538;SDS011;66042;51.090;-115.340;2023-11-21T15:07:57;1.10;;;0.60;;
74538;SDS011;66042;51.090;-115.340;2023-11-21T15:10:39;1.40;;;0.40;;